MSC Chiara — H3RT — position and weather

sailwx.info

Track history (hours):
 
Tides and Currents Weather Stations Pressure Air Temp Water Temp Dewpoint Dewpoint Depression Visibility Wind Speed Wind Dir Waves Ship Positions

MSC Chiara

Last reported at 2014-Dec-20 14:34 UTC. Time now 2014-Dec-22 15:34 UTC.
Position S 29°40' E 031°26'.

Length 197 m; draft 10.1 m.

Type: Ship (hazmat cat A). MMSI: 352398000.

Date/timePositionNaut miles runAvg speedWind from/ knotsBaromVisibWave heightAir tempDewpointWater temp
2014-Dec-20 14:34S 29°40' E 031°26'1514.7
2014-Dec-20 13:34S 29°49' E 031°13'1110.5
2014-Dec-20 12:33S 29°53' E 031°02'  
2014-Dec-14 17:29S 29°53' E 031°02'6 6.1
2014-Dec-14 16:32S 29°50' E 031°08'5 5.6
2014-Dec-14 15:33S 29°51' E 031°14'1 1.1
2014-Dec-14 14:33S 29°50' E 031°13'1 1.4
2014-Dec-14 13:33S 29°50' E 031°15'9 8.9
2014-Dec-14 12:33S 29°42' E 031°19'10 9.2
2014-Dec-14 11:26S 29°32' E 031°16'0 0.1
2014-Dec-14 10:32S 29°32' E 031°16'0 0.1
2014-Dec-14 09:32S 29°32' E 031°16'0 0.0
2014-Dec-14 08:31S 29°32' E 031°16'0 0.0
2014-Dec-14 07:31S 29°32' E 031°16'0 0.0
2014-Dec-14 06:30S 29°32' E 031°16'0 0.0
2014-Dec-14 05:30S 29°32' E 031°16'0 0.0
2014-Dec-14 04:23S 29°32' E 031°17'0 0.1
2014-Dec-14 03:23S 29°32' E 031°17'0 0.1
2014-Dec-14 00:16S 29°32' E 031°17'0 0.1
2014-Dec-13 23:27S 29°32' E 031°17'0 0.0
2014-Dec-13 22:27S 29°32' E 031°17'0 0.0
2014-Dec-13 09:33S 29°32' E 031°17'0 0.0
2014-Dec-13 07:14S 29°32' E 031°17'0 0.0
2014-Dec-13 04:19S 29°32' E 031°17'0 0.0
2014-Dec-13 03:06S 29°32' E 031°17'0 0.1
2014-Dec-13 02:24S 29°32' E 031°17'0 0.0
2014-Dec-13 01:30S 29°32' E 031°17'0 0.0
2014-Dec-13 00:23S 29°32' E 031°17'0 0.0
2014-Dec-12 23:29S 29°32' E 031°17'0 0.0
2014-Dec-12 22:28S 29°32' E 031°17'0 0.0
2014-Dec-12 21:28S 29°32' E 031°17'0 0.0
2014-Dec-12 19:27S 29°32' E 031°17'0 0.0
2014-Dec-12 18:21S 29°32' E 031°17'0 0.0
2014-Dec-12 17:32S 29°32' E 031°17'0 0.0
2014-Dec-12 16:32S 29°32' E 031°17'0 0.0
2014-Dec-12 15:32S 29°32' E 031°17'3 3.1
2014-Dec-12 14:26S 29°34' E 031°19'9 9.7
2014-Dec-12 13:33S 29°40' E 031°27'8 6.5
2014-Dec-12 12:23S 29°34' E 031°33'1113.8
2014-Dec-12 11:33S 29°26' E 031°42'  
Track history (hours):
 
Tides and Currents Weather Stations Pressure Air Temp Water Temp Dewpoint Dewpoint Depression Visibility Wind Speed Wind Dir Waves Ship Positions

MSC Chiara

Last reported at 2014-Dec-20 14:34 UTC. Time now 2014-Dec-22 15:34 UTC.
Position S 29°40' E 031°26'.

Length 197 m; draft 10.1 m.

Type: Ship (hazmat cat A). MMSI: 352398000.

Date/timePositionNaut miles runAvg speedWind from/ knotsBaromVisibWave heightAir tempDewpointWater temp
2014-Dec-20 14:34S 29°40' E 031°26'1514.7
2014-Dec-20 13:34S 29°49' E 031°13'1110.5
2014-Dec-20 12:33S 29°53' E 031°02'  
2014-Dec-14 17:29S 29°53' E 031°02'6 6.1
2014-Dec-14 16:32S 29°50' E 031°08'5 5.6
2014-Dec-14 15:33S 29°51' E 031°14'1 1.1
2014-Dec-14 14:33S 29°50' E 031°13'1 1.4
2014-Dec-14 13:33S 29°50' E 031°15'9 8.9
2014-Dec-14 12:33S 29°42' E 031°19'10 9.2
2014-Dec-14 11:26S 29°32' E 031°16'0 0.1
2014-Dec-14 10:32S 29°32' E 031°16'0 0.1
2014-Dec-14 09:32S 29°32' E 031°16'0 0.0
2014-Dec-14 08:31S 29°32' E 031°16'0 0.0
2014-Dec-14 07:31S 29°32' E 031°16'0 0.0
2014-Dec-14 06:30S 29°32' E 031°16'0 0.0
2014-Dec-14 05:30S 29°32' E 031°16'0 0.0
2014-Dec-14 04:23S 29°32' E 031°17'0 0.1
2014-Dec-14 03:23S 29°32' E 031°17'0 0.1
2014-Dec-14 00:16S 29°32' E 031°17'0 0.1
2014-Dec-13 23:27S 29°32' E 031°17'0 0.0
2014-Dec-13 22:27S 29°32' E 031°17'0 0.0
2014-Dec-13 09:33S 29°32' E 031°17'0 0.0
2014-Dec-13 07:14S 29°32' E 031°17'0 0.0
2014-Dec-13 04:19S 29°32' E 031°17'0 0.0
2014-Dec-13 03:06S 29°32' E 031°17'0 0.1
2014-Dec-13 02:24S 29°32' E 031°17'0 0.0
2014-Dec-13 01:30S 29°32' E 031°17'0 0.0
2014-Dec-13 00:23S 29°32' E 031°17'0 0.0
2014-Dec-12 23:29S 29°32' E 031°17'0 0.0
2014-Dec-12 22:28S 29°32' E 031°17'0 0.0
2014-Dec-12 21:28S 29°32' E 031°17'0 0.0
2014-Dec-12 19:27S 29°32' E 031°17'0 0.0
2014-Dec-12 18:21S 29°32' E 031°17'0 0.0
2014-Dec-12 17:32S 29°32' E 031°17'0 0.0
2014-Dec-12 16:32S 29°32' E 031°17'0 0.0
2014-Dec-12 15:32S 29°32' E 031°17'3 3.1
2014-Dec-12 14:26S 29°34' E 031°19'9 9.7
2014-Dec-12 13:33S 29°40' E 031°27'8 6.5
2014-Dec-12 12:23S 29°34' E 031°33'1113.8
2014-Dec-12 11:33S 29°26' E 031°42'  

Dump ship's entire track history